Egg Harbor Township, NJ (08234)

7:16 AM EST on December 11, 2016 (GMT -0500)
Birch Ave | | Change Station

Elev 75 ft 39.41 °N, 74.63 °W | Updated 18 seconds ago

Overcast
Overcast
25.9 °F
Feels Like 26 °F
N
0.0
Wind Variable Wind from WSW
Gusts 0.0 mph

Today
High -- | Low -- °F
--% Chance of Precip.
Yesterday
High -- | Low -- °F
Precip. -- in
Pressure 30.55 in
Visibility 10.0 miles
Clouds Overcast 10000 ft
Windchill 26 °F
Dew Point 14 °F
Humidity 60%
Rainfall 0.00 in
Snow Depth Not available.
7:08 AM 4:35 PM
Waxing Gibbous, 91% visible
METAR KACY 111154Z 00000KT 10SM OVC100 M03/M09 A3055 RMK AO2 SLP345 T10281089 11028 21044 51011
Pressure 30.55 in
Visibility 10.0 miles
Clouds Overcast 10000 ft
Windchill 26 °F
Dew Point 14 °F
Humidity 60%
Rainfall 0.00 in
Snow Depth Not available.
7:08 AM 4:35 PM
Waxing Gibbous, 91% visible
METAR KACY 111154Z 00000KT 10SM OVC100 M03/M09 A3055 RMK AO2 SLP345 T10281089 11028 21044 51011

10-Day Weather Forecast

Almanac

Astronomy

Dec. 11, 2016 Rise Set
Actual Time
Civil Twilight
Nautical Twilight
Astronomical Twilight
Moon
Length of Visible Light
Length of Day
Tomorrow will be .
, % of the Moon is Illuminated

Today's Extremes

State Highs State Lows

Community

WunderPhotos

Upload Photos

1,956,710 photos uploaded!

WunderBlog® & News

Nearby

Air Quality

  Air Quality AQ Index Pollutant
Not available.

Snow Depth

Station Depth Elevation

Earthquake Activity

City Distance Mag. Time & Date
Minimum magnitude displayed is 2.5.

Coastal Water Temperatures

Place Temperature

Stations

Nearby Weather Stations

Station Location Temp. Windchill Dew Point Humidity Wind Precip. Elev Updated Type
                   

Watches & Warnings

There are currently no watches in effect.